Time;durP1;ratioP1;P1;durP2;ratioP2;P2;SDS_P1;SDS_P2;PMS_P1;PMS_P2;Temp;Humidity;BMP_temperature;BMP_pressure;BME280_temperature;BME280_humidity;BME280_pressure;Samples;Min_cycle;Max_cycle;Signal;HPM_P1;HPM_P2
2022/04/23 00:02:20;;;;;;;18.02;11.70;;;;;;;7.15;100.00;98922.55;1725152;82;20919;-74
2022/04/23 00:04:47;;;;;;;16.82;11.22;;;;;;;7.12;100.00;98922.36;1730462;82;21007;-74
2022/04/23 00:07:19;;;;;;;18.25;11.35;;;;;;;7.10;100.00;98918.57;1735504;82;20978;-75
2022/04/23 00:09:48;;;;;;;17.87;11.43;;;;;;;7.08;100.00;98915.34;1744370;82;21743;-74
2022/04/23 00:12:15;;;;;;;19.42;11.88;;;;;;;7.06;100.00;98913.48;1736908;81;20887;-74
2022/04/23 00:14:45;;;;;;;18.77;11.75;;;;;;;7.05;100.00;98899.58;1733591;82;20891;-75
2022/04/23 00:17:27;;;;;;;18.50;11.75;;;;;;;7.03;100.00;98903.18;1718037;82;21545;-74
2022/04/23 00:19:50;;;;;;;19.65;11.25;;;;;;;7.00;100.00;98907.88;1720546;82;21470;-75
2022/04/23 00:22:18;;;;;;;17.20;11.73;;;;;;;6.98;100.00;98907.94;1722453;81;21888;-74
2022/04/23 00:24:48;;;;;;;15.08;10.68;;;;;;;6.95;100.00;98894.36;1734926;82;20978;-75
2022/04/23 00:27:18;;;;;;;13.90;10.23;;;;;;;6.94;100.00;98899.56;1705848;82;21510;-74
2022/04/23 00:29:48;;;;;;;17.32;10.58;;;;;;;6.94;100.00;98900.92;1700347;82;20943;-74
2022/04/23 00:32:21;;;;;;;17.35;10.32;;;;;;;6.92;100.00;98903.19;1741190;82;20998;-74
2022/04/23 00:34:50;;;;;;;16.97;11.20;;;;;;;6.92;100.00;98901.82;1699422;82;20939;-74
2022/04/23 00:37:20;;;;;;;17.32;10.82;;;;;;;6.91;100.00;98892.83;1723026;82;20982;-75
2022/04/23 00:39:52;;;;;;;15.93;10.48;;;;;;;6.90;100.00;98886.31;1705363;82;20943;-75
2022/04/23 00:42:23;;;;;;;14.03;9.90;;;;;;;6.91;100.00;98889.30;1732610;82;20963;-74
2022/04/23 00:44:55;;;;;;;14.93;9.65;;;;;;;6.90;100.00;98880.86;1700863;81;21516;-75
2022/04/23 00:47:24;;;;;;;13.10;8.73;;;;;;;6.88;100.00;98875.70;1735271;82;21169;-75
2022/04/23 00:49:55;;;;;;;16.65;9.30;;;;;;;6.89;100.00;98869.69;1733385;82;20888;-75
2022/04/23 00:52:25;;;;;;;18.60;10.10;;;;;;;6.88;100.00;98874.34;1731839;82;20916;-74
2022/04/23 00:54:59;;;;;;;15.63;9.35;;;;;;;6.87;100.00;98867.27;1734716;82;21050;-73
2022/04/23 00:57:29;;;;;;;14.40;9.08;;;;;;;6.87;100.00;98871.36;1726765;82;20978;-73
2022/04/23 01:00:06;;;;;;;13.50;8.40;;;;;;;6.86;100.00;98871.11;1730834;82;20930;-74
2022/04/23 01:02:40;;;;;;;13.15;8.58;;;;;;;6.85;100.00;98872.23;1731982;81;21030;-74
2022/04/23 01:05:10;;;;;;;11.00;8.28;;;;;;;6.86;100.00;98866.22;1725627;81;21526;-74
2022/04/23 01:07:42;;;;;;;11.63;8.55;;;;;;;6.85;100.00;98868.69;1740302;82;20904;-74
2022/04/23 01:10:13;;;;;;;15.63;9.20;;;;;;;6.84;100.00;98862.43;1730255;82;20923;-74
2022/04/23 01:12:42;;;;;;;12.73;8.55;;;;;;;6.83;100.00;98858.64;1724368;82;21446;-72
2022/04/23 01:15:18;;;;;;;13.83;8.25;;;;;;;6.81;100.00;98860.88;1730948;82;20966;-74
2022/04/23 01:17:52;;;;;;;14.90;9.15;;;;;;;6.79;100.00;98863.10;1705976;83;20936;-74
2022/04/23 01:20:25;;;;;;;13.85;8.73;;;;;;;6.78;100.00;98860.13;1716201;82;38652;-73
2022/04/23 01:22:56;;;;;;;11.63;8.45;;;;;;;6.76;100.00;98852.25;1705809;83;21501;-74
2022/04/23 01:25:26;;;;;;;20.02;9.23;;;;;;;6.72;100.00;98851.80;1733668;82;21272;-73
2022/04/23 01:27:54;;;;;;;17.70;9.10;;;;;;;6.68;100.00;98845.34;1717927;83;20883;-73
2022/04/23 01:30:24;;;;;;;11.85;8.93;;;;;;;6.62;100.00;98840.00;1733061;82;20924;-73
2022/04/23 01:32:58;;;;;;;14.53;8.88;;;;;;;6.56;100.00;98833.05;1729813;82;21443;-74
2022/04/23 01:35:31;;;;;;;12.35;8.90;;;;;;;6.52;100.00;98827.14;1705634;82;20947;-74
2022/04/23 01:38:03;;;;;;;15.30;9.63;;;;;;;6.49;100.00;98832.66;1720819;81;21180;-74
2022/04/23 01:40:32;;;;;;;16.23;8.88;;;;;;;6.48;100.00;98832.41;1719061;82;20888;-75
2022/04/23 01:43:04;;;;;;;10.90;8.50;;;;;;;6.48;100.00;98841.14;1693084;83;21002;-75
2022/04/23 01:45:38;;;;;;;16.02;8.95;;;;;;;6.49;100.00;98838.66;1707608;82;20884;-75
2022/04/23 01:48:13;;;;;;;19.75;9.23;;;;;;;6.50;100.00;98834.27;1710395;82;20971;-75
2022/04/23 01:50:50;;;;;;;13.45;8.13;;;;;;;6.51;100.00;98845.43;1723414;82;21805;-75
2022/04/23 01:53:22;;;;;;;13.75;8.78;;;;;;;6.53;100.00;98850.02;1721848;82;20943;-75
2022/04/23 01:56:01;;;;;;;14.20;8.48;;;;;;;6.53;100.00;98847.30;1738317;82;20891;-75
2022/04/23 01:58:35;;;;;;;12.15;8.48;;;;;;;6.54;100.00;98843.45;1733191;82;20891;-74
2022/04/23 02:01:10;;;;;;;13.28;8.65;;;;;;;6.57;100.00;98843.40;1701108;82;21063;-75
2022/04/23 02:03:39;;;;;;;16.20;9.18;;;;;;;6.57;100.00;98836.02;1694842;82;21517;-75
2022/04/23 02:06:15;;;;;;;12.75;8.40;;;;;;;6.58;100.00;98847.19;1719469;82;20939;-74
2022/04/23 02:08:43;;;;;;;15.28;8.95;;;;;;;6.57;100.00;98845.57;1735842;82;21412;-74
2022/04/23 02:11:17;;;;;;;12.80;8.98;;;;;;;6.58;100.00;98843.09;1730011;81;21420;-74
2022/04/23 02:13:50;;;;;;;14.53;9.20;;;;;;;6.58;100.00;98834.11;1718900;82;20868;-74
2022/04/23 02:16:21;;;;;;;12.78;9.00;;;;;;;6.57;100.00;98831.94;1699638;83;20899;-74
2022/04/23 02:18:57;;;;;;;13.13;9.25;;;;;;;6.57;100.00;98831.12;1723040;82;20978;-74
2022/04/23 02:21:34;;;;;;;11.88;8.20;;;;;;;6.54;100.00;98829.82;1714291;82;20991;-74
2022/04/23 02:24:08;;;;;;;13.58;9.20;;;;;;;6.53;100.00;98829.57;1722704;82;20994;-74
2022/04/23 02:26:40;;;;;;;16.30;8.23;;;;;;;6.49;100.00;98820.39;1733323;82;21046;-76
2022/04/23 02:29:11;;;;;;;14.60;9.25;;;;;;;6.46;100.00;98820.19;1732763;82;21905;-75
2022/04/23 02:31:43;;;;;;;14.78;9.03;;;;;;;6.43;100.00;98824.34;1738930;82;20880;-75
2022/04/23 02:34:16;;;;;;;12.88;8.08;;;;;;;6.40;100.00;98826.31;1734496;82;25582;-75
2022/04/23 02:36:46;;;;;;;14.40;9.48;;;;;;;6.38;100.00;98823.08;1732271;82;20922;-76
2022/04/23 02:39:20;;;;;;;12.37;8.28;;;;;;;6.35;100.00;98818.83;1730674;82;20983;-75
2022/04/23 02:41:43;;;;;;;16.57;8.90;;;;;;;6.33;100.00;98819.13;1722003;82;21174;-75
2022/04/23 02:44:15;;;;;;;16.00;9.93;;;;;;;6.30;100.00;98807.48;1736018;82;21055;-75
2022/04/23 02:46:46;;;;;;;14.33;8.73;;;;;;;6.28;100.00;98820.60;1716456;82;21443;-75
2022/04/23 02:49:13;;;;;;;14.83;9.53;;;;;;;6.26;100.00;98819.55;1723298;82;20962;-75
2022/04/23 02:51:42;;;;;;;14.70;10.05;;;;;;;6.23;100.00;98815.26;1723269;82;21471;-75
2022/04/23 02:54:10;;;;;;;12.28;9.45;;;;;;;6.20;100.00;98815.31;1692549;83;20974;-75
2022/04/23 02:56:45;;;;;;;16.02;9.58;;;;;;;6.17;100.00;98815.11;1725066;82;20967;-75
2022/04/23 02:59:21;;;;;;;17.30;9.25;;;;;;;6.17;100.00;98828.73;1722737;82;20990;-74
2022/04/23 03:01:52;;;;;;;16.40;9.78;;;;;;;6.15;100.00;98820.06;1739753;82;20947;-79
2022/04/23 03:04:25;;;;;;;19.98;9.80;;;;;;;6.14;100.00;98824.70;1725907;82;21494;-77
2022/04/23 03:06:56;;;;;;;15.40;9.60;;;;;;;6.13;100.00;98814.11;1726142;82;21802;-76
2022/04/23 03:09:25;;;;;;;16.32;10.30;;;;;;;6.12;100.00;98811.94;1736021;81;21076;-81
2022/04/23 03:11:59;;;;;;;15.43;9.95;;;;;;;6.11;100.00;98824.50;1734221;81;21007;-76
2022/04/23 03:14:32;;;;;;;15.53;9.58;;;;;;;6.10;100.00;98814.16;1732518;81;20895;-73
2022/04/23 03:17:06;;;;;;;17.95;10.75;;;;;;;6.09;100.00;98819.35;1723878;82;21479;-76
2022/04/23 03:19:39;;;;;;;16.60;10.00;;;;;;;6.11;100.00;98812.23;1705164;83;20892;-72
2022/04/23 03:22:08;;;;;;;14.33;10.20;;;;;;;6.14;100.00;98810.27;1677667;84;20924;-68
2022/04/23 03:24:39;;;;;;;14.93;9.75;;;;;;;6.15;100.00;98809.97;1676327;84;21030;-68
2022/04/23 03:27:10;;;;;;;14.85;10.32;;;;;;;6.19;100.00;98807.44;1698512;83;28162;-69
2022/04/23 03:29:39;;;;;;;18.40;9.90;;;;;;;6.20;100.00;98805.77;1734571;82;20899;-68
2022/04/23 03:32:10;;;;;;;18.05;9.43;;;;;;;6.22;100.00;98804.10;1732070;82;21446;-69
2022/04/23 03:34:40;;;;;;;13.70;9.68;;;;;;;6.25;100.00;98802.13;1717572;82;20994;-69
2022/04/23 03:37:10;;;;;;;14.58;8.90;;;;;;;6.27;100.00;98794.45;1725698;82;20997;-69
2022/04/23 03:39:41;;;;;;;18.05;9.80;;;;;;;6.29;100.00;98797.13;1725520;82;20979;-69
2022/04/23 03:42:12;;;;;;;13.68;8.18;;;;;;;6.33;100.00;98800.05;1728875;82;20950;-68
2022/04/23 03:44:42;;;;;;;;;;;;;;;6.37;100.00;98807.84;1740144;81;20918;-70
2022/04/23 03:47:13;;;;;;;19.07;8.68;;;;;;;6.40;100.00;98801.77;1728900;81;20150;-68
2022/04/23 03:49:43;;;;;;;16.60;8.48;;;;;;;6.39;100.00;98800.16;1697503;84;20938;-68
2022/04/23 03:52:14;;;;;;;14.47;9.48;;;;;;;6.43;100.00;98789.45;1699313;83;20954;-67
2022/04/23 03:54:42;;;;;;;14.15;9.18;;;;;;;6.44;100.00;98800.05;1689617;84;21537;-68
2022/04/23 03:57:12;;;;;;;12.45;9.08;;;;;;;6.47;100.00;98794.54;1683465;84;21132;-67
2022/04/23 03:59:39;;;;;;;13.10;9.00;;;;;;;6.50;100.00;98784.38;1736951;82;21032;-68
2022/04/23 04:02:07;;;;;;;16.82;9.48;;;;;;;6.53;100.00;98790.03;1730302;82;20919;-68
2022/04/23 04:04:38;;;;;;;13.03;9.45;;;;;;;6.55;100.00;98790.53;1731472;82;21394;-68
2022/04/23 04:07:12;;;;;;;13.13;8.80;;;;;;;6.59;100.00;98793.45;1738581;82;21435;-68
2022/04/23 04:09:46;;;;;;;20.30;9.40;;;;;;;6.65;100.00;98794.14;1735100;82;20883;-68
2022/04/23 04:12:20;;;;;;;19.73;9.00;;;;;;;6.69;100.00;98793.22;1744033;81;21509;-68
2022/04/23 04:14:48;;;;;;;13.75;8.55;;;;;;;6.74;100.00;98797.75;1712139;82;20974;-68
2022/04/23 04:17:20;;;;;;;16.70;8.80;;;;;;;6.77;100.00;98788.95;1738218;82;20974;-69
2022/04/23 04:19:53;;;;;;;10.98;8.75;;;;;;;6.83;100.00;98791.80;1714371;83;20934;-69
2022/04/23 04:22:26;;;;;;;14.87;8.60;;;;;;;6.87;100.00;98798.26;1723384;81;21068;-70
2022/04/23 04:25:01;;;;;;;12.43;8.60;;;;;;;6.92;100.00;98787.22;1730079;82;21091;-68
2022/04/23 04:27:33;;;;;;;16.48;9.65;;;;;;;6.96;100.00;98795.81;1703296;82;21022;-68
2022/04/23 04:29:59;;;;;;;17.42;8.80;;;;;;;7.02;100.00;98790.23;1737348;82;20899;-67
2022/04/23 04:32:33;;;;;;;15.05;8.58;;;;;;;7.06;100.00;98787.94;1730802;81;20981;-68
2022/04/23 04:35:04;;;;;;;13.90;8.08;;;;;;;7.10;100.00;98781.30;1734085;82;22256;-67
2022/04/23 04:37:32;;;;;;;12.10;8.08;;;;;;;7.14;100.00;98785.83;1732694;81;20915;-68
2022/04/23 04:40:04;;;;;;;14.63;7.65;;;;;;;7.18;100.00;98784.09;1742197;81;20888;-68
2022/04/23 04:42:35;;;;;;;13.80;8.03;;;;;;;7.23;100.00;98784.52;1733720;82;21512;-69
2022/04/23 04:45:06;;;;;;;11.93;7.50;;;;;;;7.26;100.00;98784.70;1717321;82;21431;-68
2022/04/23 04:47:38;;;;;;;13.70;7.03;;;;;;;7.30;100.00;98776.69;1740621;82;21212;-68
2022/04/23 04:50:15;;;;;;;13.38;7.70;;;;;;;7.33;100.00;98780.16;1740397;82;20984;-68
2022/04/23 04:52:46;;;;;;;12.45;7.87;;;;;;;7.36;100.00;98778.17;1700438;83;20998;-70
2022/04/23 04:55:19;;;;;;;15.30;7.80;;;;;;;7.40;100.00;98781.08;1679964;83;20990;-67
2022/04/23 04:57:48;;;;;;;14.87;8.28;;;;;;;7.42;99.88;98784.30;1662724;85;20974;-68
2022/04/23 05:00:22;;;;;;;13.13;7.50;;;;;;;7.45;99.77;98779.58;1684075;83;21264;-68
2022/04/23 05:02:52;;;;;;;14.68;7.65;;;;;;;7.48;99.21;98776.23;1663775;84;20955;-69
2022/04/23 05:05:22;;;;;;;12.03;8.15;;;;;;;7.53;99.51;98776.06;1693726;84;20934;-69
2022/04/23 05:07:52;;;;;;;12.88;7.62;;;;;;;7.57;98.92;98775.68;1683665;83;21021;-70
2022/04/23 05:10:23;;;;;;;14.28;7.83;;;;;;;7.60;98.98;98769.03;1682697;84;21192;-68
2022/04/23 05:12:51;;;;;;;14.65;8.00;;;;;;;7.66;99.23;98774.35;1667362;85;21170;-68
2022/04/23 05:15:25;;;;;;;11.68;7.12;;;;;;;7.70;98.23;98773.41;1676708;85;21467;-70
2022/04/23 05:17:54;;;;;;;10.85;7.87;;;;;;;7.73;97.49;98764.58;1679355;84;21561;-70
2022/04/23 05:20:30;;;;;;;15.13;7.72;;;;;;;7.77;97.29;98768.30;1697875;83;21045;-66
2022/04/23 05:22:56;;;;;;;;;;;;;;;7.80;97.62;98769.03;1683485;83;21082;-67
2022/04/23 05:25:28;;;;;;;12.30;6.92;;;;;;;7.86;96.54;98762.86;1657586;86;21205;-69
2022/04/23 05:28:02;;;;;;;12.80;7.58;;;;;;;7.88;96.27;98739.56;1685149;84;20985;-68
2022/04/23 05:30:38;;;;;;;16.20;7.95;;;;;;;7.92;95.98;98769.23;1679277;83;21164;-69
2022/04/23 05:33:11;;;;;;;13.83;7.75;;;;;;;7.99;96.47;98754.30;1699912;83;21092;-73
2022/04/23 05:35:45;;;;;;;13.25;7.80;;;;;;;8.06;96.22;98758.73;1682991;84;20970;-75
2022/04/23 05:38:22;;;;;;;17.92;12.35;;;;;;;8.13;95.64;98749.48;1690536;84;20883;-68
2022/04/23 05:40:52;;;;;;;18.70;14.60;;;;;;;8.21;94.91;98760.44;1664071;85;21047;-73
2022/04/23 05:43:21;;;;;;;13.88;9.30;;;;;;;8.28;94.90;98748.46;1687058;84;21013;-72
2022/04/23 05:45:57;;;;;;;14.55;9.03;;;;;;;8.34;94.72;98749.15;1683746;83;21058;-69
2022/04/23 05:48:24;;;;;;;17.23;10.20;;;;;;;8.38;93.28;98748.75;1671661;85;21550;-68
2022/04/23 05:50:58;;;;;;;15.65;11.35;;;;;;;8.40;93.10;98754.70;1687876;84;21212;-69
2022/04/23 05:53:25;;;;;;;13.68;8.63;;;;;;;8.43;93.78;98740.95;1685236;84;21070;-70
2022/04/23 05:55:56;;;;;;;13.68;8.48;;;;;;;8.51;92.80;98739.59;1685344;84;20922;-72
2022/04/23 05:58:23;;;;;;;21.25;8.15;;;;;;;8.60;92.16;98734.92;1685861;84;22478;-71
2022/04/23 06:00:53;;;;;;;11.80;9.33;;;;;;;8.70;91.37;98733.77;1685735;84;20859;-73
2022/04/23 06:03:25;;;;;;;14.50;8.70;;;;;;;8.79;91.98;98739.23;1664209;85;21162;-71
2022/04/23 06:05:56;;;;;;;15.10;8.58;;;;;;;8.90;92.39;98742.69;1733074;82;20887;-71
2022/04/23 06:08:28;;;;;;;19.00;13.10;;;;;;;9.05;90.90;98735.09;1735698;81;20913;-70
2022/04/23 06:10:59;;;;;;;25.35;18.95;;;;;;;9.16;89.01;98731.69;1735303;82;21525;-70
2022/04/23 06:13:32;;;;;;;18.35;13.85;;;;;;;9.24;88.04;98739.05;1741850;82;20974;-78
2022/04/23 06:16:02;;;;;;;20.77;12.33;;;;;;;9.28;86.76;98720.03;1697951;82;21070;-78
2022/04/23 06:18:29;;;;;;;16.85;9.60;;;;;;;9.30;86.90;98714.23;1738894;81;21518;-78
2022/04/23 06:21:00;;;;;;;13.70;8.20;;;;;;;9.30;86.38;98718.34;1732251;82;20892;-77
2022/04/23 06:23:34;;;;;;;14.83;8.98;;;;;;;9.33;85.92;98706.73;1733527;82;21125;-78
2022/04/23 06:26:03;;;;;;;10.50;7.37;;;;;;;9.34;86.23;98711.08;1738998;82;20987;-77
2022/04/23 06:28:34;;;;;;;15.90;11.15;;;;;;;9.38;86.66;98709.28;1726050;82;21150;-77
2022/04/23 06:31:07;;;;;;;19.42;12.35;;;;;;;9.50;86.33;98720.36;1725748;82;20919;-78
2022/04/23 06:33:35;;;;;;;13.78;10.80;;;;;;;9.65;87.13;98707.48;1731724;82;20884;-76
2022/04/23 06:36:05;;;;;;;11.35;8.33;;;;;;;9.80;83.88;98696.53;1726857;82;21694;-77
2022/04/23 06:38:33;;;;;;;12.55;8.45;;;;;;;9.89;83.75;98700.80;1734237;81;20916;-78
2022/04/23 06:41:03;;;;;;;13.88;9.10;;;;;;;10.01;84.68;98701.45;1729789;82;21254;-78
2022/04/23 06:43:33;;;;;;;14.13;8.43;;;;;;;10.18;84.55;98692.31;1712453;82;20978;-78
2022/04/23 06:46:04;;;;;;;12.47;8.05;;;;;;;10.35;82.67;98697.70;1724520;82;20983;-83
2022/04/23 06:48:35;;;;;;;11.48;8.55;;;;;;;10.51;81.91;98697.87;1725389;82;20951;-76
2022/04/23 06:51:05;;;;;;;11.43;7.85;;;;;;;10.68;81.69;98687.33;1726887;82;20970;-78
2022/04/23 06:53:38;;;;;;;8.58;6.28;;;;;;;10.84;78.38;98693.80;1725154;82;20972;-77
2022/04/23 06:56:09;;;;;;;10.40;5.40;;;;;;;10.93;75.95;98687.64;1728757;82;20938;-74
2022/04/23 06:58:36;;;;;;;10.03;6.00;;;;;;;10.98;75.38;98687.41;1736888;82;20915;-71
2022/04/23 07:01:07;;;;;;;8.00;5.03;;;;;;;11.05;74.69;98693.14;1738298;82;21009;-73
2022/04/23 07:03:33;;;;;;;7.10;5.17;;;;;;;11.17;74.70;98691.80;1725420;82;20947;-82
2022/04/23 07:06:00;;;;;;;7.25;5.58;;;;;;;11.28;73.58;98689.42;1734835;82;21061;-72
2022/04/23 07:08:29;;;;;;;8.13;5.25;;;;;;;11.41;73.40;98687.50;1726487;81;20995;-74
2022/04/23 07:10:56;;;;;;;9.80;5.37;;;;;;;11.50;71.35;98686.83;1733265;81;20966;-75
2022/04/23 07:13:25;;;;;;;8.83;5.08;;;;;;;11.51;71.07;98684.30;1737508;81;21050;-75
2022/04/23 07:15:53;;;;;;;9.78;5.10;;;;;;;11.61;70.46;98693.44;1730448;82;21526;-74
2022/04/23 07:18:20;;;;;;;7.67;4.40;;;;;;;11.71;68.09;98687.49;1728719;82;21073;-73
2022/04/23 07:20:48;;;;;;;7.37;4.92;;;;;;;11.72;70.07;98682.80;1726099;82;20986;-76
2022/04/23 07:26:02;;;;;;;6.45;4.62;;;;;;;11.81;67.12;98682.94;1720486;83;20942;-77
2022/04/23 07:28:30;;;;;;;9.33;4.30;;;;;;;11.90;67.44;98671.81;1731283;82;20947;-72
2022/04/23 07:30:56;;;;;;;8.30;4.70;;;;;;;12.05;68.56;98668.94;1726306;82;21121;-70
2022/04/23 07:38:55;;;;;;;7.60;4.45;;;;;;;12.20;65.90;98657.19;1736778;82;20923;-75
2022/04/23 07:41:23;;;;;;;5.10;4.08;;;;;;;12.33;66.15;98662.09;1730540;82;20939;-73
2022/04/23 07:43:50;;;;;;;10.25;4.25;;;;;;;12.45;63.88;98652.41;1734001;82;21522;-76
2022/04/23 07:46:17;;;;;;;12.10;4.12;;;;;;;12.54;61.80;98646.99;1727446;82;21017;-70
2022/04/23 07:48:46;;;;;;;10.98;4.92;;;;;;;12.67;62.41;98644.98;1739511;82;20927;-70
2022/04/23 07:51:13;;;;;;;7.83;4.28;;;;;;;12.87;61.66;98645.89;1732412;82;20895;-69
2022/04/23 07:53:41;;;;;;;8.40;4.00;;;;;;;13.03;62.21;98637.08;1725098;82;20899;-72
2022/04/23 07:56:09;;;;;;;6.25;3.67;;;;;;;13.23;58.76;98632.51;1741988;82;20955;-72
2022/04/23 07:58:36;;;;;;;6.75;3.33;;;;;;;13.36;58.78;98627.68;1737158;82;20982;-71
2022/04/23 08:01:03;;;;;;;8.00;3.75;;;;;;;13.49;57.20;98633.33;1728505;82;21427;-69
2022/04/23 08:03:30;;;;;;;9.53;3.72;;;;;;;13.59;57.63;98634.74;1736391;82;21558;-67
2022/04/23 08:05:57;;;;;;;5.55;3.83;;;;;;;13.63;57.06;98637.80;1738528;82;21028;-68
2022/04/23 08:08:24;;;;;;;6.20;3.80;;;;;;;13.63;56.84;98637.00;1732770;82;21225;-66
2022/04/23 08:10:52;;;;;;;4.72;3.37;;;;;;;13.55;55.81;98632.70;1723240;81;20972;-67
2022/04/23 08:13:21;;;;;;;8.53;3.70;;;;;;;13.47;56.52;98637.02;1733065;82;21489;-67
2022/04/23 08:15:48;;;;;;;4.67;3.40;;;;;;;13.48;57.95;98635.28;1731659;82;20911;-68
2022/04/23 08:18:16;;;;;;;7.70;3.67;;;;;;;13.61;57.94;98620.02;1722146;82;20930;-68
2022/04/23 08:20:45;;;;;;;5.62;3.33;;;;;;;13.86;58.89;98630.45;1725596;82;21156;-68
2022/04/23 08:23:15;;;;;;;6.87;3.45;;;;;;;14.14;57.58;98623.38;1727352;82;20886;-68
2022/04/23 08:25:45;;;;;;;6.15;3.40;;;;;;;14.35;55.77;98617.52;1724404;81;20931;-70
2022/04/23 08:30:57;;;;;;;5.28;3.33;;;;;;;14.53;55.80;98614.53;1737364;82;21844;-70
2022/04/23 08:33:57;;;;;;;4.72;3.25;;;;;;;14.67;54.21;98614.60;1734180;82;20925;-71
2022/04/23 08:35:57;;;;;;;5.45;3.33;;;;;;;14.66;52.29;98594.47;1729084;82;20983;-70
2022/04/23 08:38:25;;;;;;;6.45;3.42;;;;;;;14.73;53.62;98613.14;1727591;82;21059;-70
2022/04/23 08:40:53;;;;;;;3.55;3.17;;;;;;;14.84;52.57;98608.04;1738705;82;21006;-67
2022/04/23 08:43:19;;;;;;;8.25;3.17;;;;;;;15.04;52.88;98604.62;1738547;82;20976;-70
2022/04/23 08:45:46;;;;;;;6.90;3.33;;;;;;;15.34;53.60;98602.56;1731479;82;21882;-69
2022/04/23 08:48:17;;;;;;;6.67;3.08;;;;;;;15.52;51.87;98604.45;1729752;82;21081;-70
2022/04/23 08:50:43;;;;;;;6.08;3.33;;;;;;;15.54;51.08;98594.39;1723410;81;20930;-69
2022/04/23 08:53:20;;;;;;;7.55;2.95;;;;;;;15.43;50.76;98590.66;1738419;82;20931;-70
2022/04/23 08:55:48;;;;;;;3.50;3.08;;;;;;;15.40;50.78;98590.81;1731707;82;21554;-72
2022/04/23 08:58:17;;;;;;;4.08;2.92;;;;;;;15.45;50.89;98579.44;1740312;82;21149;-70
2022/04/23 09:00:45;;;;;;;5.67;3.10;;;;;;;15.48;50.08;98515.09;1733539;82;21422;-79
2022/04/23 09:03:15;;;;;;;5.03;2.80;;;;;;;15.48;50.17;98575.94;1737968;82;20900;-75
2022/04/23 09:05:44;;;;;;;6.30;3.10;;;;;;;15.57;49.73;98570.76;1734122;82;20900;-71
2022/04/23 09:08:12;;;;;;;4.75;3.37;;;;;;;15.44;50.16;98580.61;1723700;81;20955;-82
2022/04/23 09:10:45;;;;;;;5.42;2.95;;;;;;;15.23;50.78;98584.99;1733836;81;20963;-72
2022/04/23 09:13:28;;;;;;;6.75;2.95;;;;;;;15.06;50.09;98568.31;1733590;82;20946;-73
2022/04/23 09:24:47;;;;;;;12.33;3.50;;;;;;;15.52;49.54;98557.42;1724970;82;21061;-70
2022/04/23 09:27:14;;;;;;;4.58;3.10;;;;;;;15.38;49.06;98563.32;1740237;82;26893;-75
2022/04/23 09:29:58;;;;;;;4.78;3.12;;;;;;;15.32;49.17;98560.66;1738372;82;20935;-74
2022/04/23 09:32:27;;;;;;;5.00;2.50;;;;;;;15.52;48.10;98563.55;1735559;82;21422;-69
2022/04/23 09:35:12;;;;;;;6.87;2.80;;;;;;;15.79;46.95;98549.12;1741578;82;21410;-72
2022/04/23 09:40:27;;;;;;;4.45;2.70;;;;;;;16.10;46.19;98536.29;1697384;82;21408;-69
2022/04/23 09:43:08;;;;;;;5.83;3.08;;;;;;;16.33;46.31;98538.12;1733010;82;21061;-70
2022/04/23 09:45:41;;;;;;;6.25;3.15;;;;;;;16.49;45.17;98524.26;1718609;81;21014;-76
2022/04/23 09:48:15;;;;;;;3.40;2.33;;;;;;;16.34;46.10;98528.05;1723137;83;20926;-69
2022/04/23 09:50:47;;;;;;;4.20;2.90;;;;;;;16.21;45.58;98539.75;1734210;82;21240;-70
2022/04/23 09:53:16;;;;;;;6.30;3.12;;;;;;;16.03;45.18;98538.17;1733603;82;20884;-71
2022/04/23 09:55:45;;;;;;;4.40;2.50;;;;;;;15.99;45.44;98535.36;1731843;82;20852;-71
2022/04/23 09:58:13;;;;;;;4.08;2.85;;;;;;;16.21;45.52;98525.91;1740152;82;20943;-73
2022/04/23 10:00:44;;;;;;;4.22;2.87;;;;;;;16.53;46.57;98519.34;1731621;82;20986;-72
2022/04/23 10:03:12;;;;;;;4.75;2.50;;;;;;;16.98;47.32;98491.27;1728935;82;20946;-71
2022/04/23 10:05:46;;;;;;;8.40;2.80;;;;;;;17.25;47.07;98514.07;1722288;81;20986;-71
2022/04/23 10:08:20;;;;;;;5.37;3.37;;;;;;;17.39;45.40;98508.59;1726877;81;20953;-70
2022/04/23 10:11:17;;;;;;;5.42;3.05;;;;;;;17.26;45.35;98507.94;1708805;82;20988;-68
2022/04/23 10:13:48;;;;;;;7.17;3.27;;;;;;;17.09;45.68;98511.57;1732598;81;20935;-68
2022/04/23 10:16:13;;;;;;;9.00;3.40;;;;;;;17.11;44.75;98510.59;1729095;82;21181;-68
2022/04/23 10:18:44;;;;;;;5.53;3.00;;;;;;;17.27;45.11;98507.55;1721988;83;20971;-70
2022/04/23 10:21:30;;;;;;;5.43;3.00;;;;;;;17.42;44.89;98487.02;1744579;82;20943;-70
2022/04/23 10:24:09;;;;;;;3.30;2.75;;;;;;;17.33;43.66;98496.27;1677058;84;22362;-69
2022/04/23 10:27:07;;;;;;;3.70;2.45;;;;;;;17.11;44.31;98498.12;1691049;83;21508;-68
2022/04/23 10:29:31;;;;;;;4.08;2.87;;;;;;;16.96;45.23;98499.17;1691880;83;21159;-68
2022/04/23 10:32:17;;;;;;;7.15;2.92;;;;;;;16.87;44.96;98497.31;1680555;84;20907;-69
2022/04/23 10:34:44;;;;;;;3.55;2.67;;;;;;;17.02;44.72;98498.23;1691118;84;20938;-68
2022/04/23 10:37:27;;;;;;;5.92;2.90;;;;;;;17.40;44.99;98498.30;1663508;85;20918;-67
2022/04/23 10:39:59;;;;;;;2.72;2.08;;;;;;;17.76;42.68;98495.97;1718491;82;20936;-68
2022/04/23 10:42:27;;;;;;;3.60;2.27;;;;;;;17.92;41.41;98497.61;1726294;82;21894;-67
2022/04/23 10:44:56;;;;;;;3.72;2.65;;;;;;;18.04;42.25;98493.09;1734323;82;21455;-78
2022/04/23 10:47:34;;;;;;;4.40;2.30;;;;;;;18.16;40.51;98488.58;1731148;82;20887;-71
2022/04/23 10:50:22;;;;;;;4.42;2.90;;;;;;;18.06;41.79;98490.13;1735212;82;21038;-70
2022/04/23 10:52:50;;;;;;;3.65;2.83;;;;;;;17.92;43.87;98494.23;1737767;82;20923;-72
2022/04/23 10:55:17;;;;;;;4.17;2.85;;;;;;;17.62;42.81;98479.21;1740049;82;21569;-71
2022/04/23 10:57:54;;;;;;;6.90;2.47;;;;;;;17.45;45.15;98484.06;1727091;82;20884;-71
2022/04/23 11:00:30;;;;;;;9.25;2.70;;;;;;;17.40;43.74;98469.97;1683720;81;21151;-70
2022/04/23 11:02:57;;;;;;;7.55;2.80;;;;;;;17.27;43.64;98478.42;1684606;84;21510;-72
2022/04/23 11:14:39;;;;;;;3.17;2.20;;;;;;;17.15;43.40;98470.41;1658144;85;21044;-69
2022/04/23 11:17:14;;;;;;;8.93;2.90;;;;;;;17.15;41.96;98467.05;1633716;84;21542;-73
2022/04/23 11:19:42;;;;;;;2.83;2.40;;;;;;;17.49;43.34;98461.30;1652704;85;21131;-70
2022/04/23 11:22:14;;;;;;;4.35;2.35;;;;;;;17.69;42.48;98460.45;1637017;86;21879;-71
2022/04/23 11:24:46;;;;;;;2.52;2.30;;;;;;;17.89;43.08;98471.45;1593006;87;20901;-76
2022/04/23 11:27:38;;;;;;;3.85;2.65;;;;;;;17.95;41.76;98458.75;1634361;85;20968;-74
2022/04/23 11:30:11;;;;;;;3.85;2.60;;;;;;;17.84;41.35;98449.61;1653908;85;21566;-78
2022/04/23 11:32:40;;;;;;;8.38;2.58;;;;;;;17.65;42.30;98442.95;1641321;85;21107;-74
2022/04/23 11:35:10;;;;;;;5.42;2.08;;;;;;;17.55;42.62;98445.87;1636239;86;21004;-75
2022/04/23 11:37:42;;;;;;;3.10;2.50;;;;;;;17.57;42.28;98446.28;1646265;86;20981;-74
2022/04/23 11:40:16;;;;;;;9.60;2.33;;;;;;;17.80;41.88;98437.70;1594902;88;21170;-74
2022/04/23 11:42:51;;;;;;;6.15;2.40;;;;;;;17.99;42.05;98437.34;1633951;86;21023;-73
2022/04/23 11:45:23;;;;;;;3.70;2.35;;;;;;;18.15;42.48;98441.16;1634314;86;20982;-72
2022/04/23 11:47:58;;;;;;;4.40;2.37;;;;;;;18.23;41.65;98437.81;1631757;86;25456;-70
2022/04/23 11:50:28;;;;;;;5.47;2.42;;;;;;;18.25;42.10;98433.45;1640832;86;21104;-69
2022/04/23 11:53:03;;;;;;;5.90;2.83;;;;;;;18.29;42.66;98428.70;1598576;88;20971;-68
2022/04/23 11:55:33;;;;;;;7.72;2.58;;;;;;;18.41;41.74;98424.16;1612544;86;21095;-68
2022/04/23 11:58:08;;;;;;;7.58;2.52;;;;;;;18.62;42.06;98426.77;1627684;85;20968;-68
2022/04/23 12:00:38;;;;;;;9.83;2.77;;;;;;;18.73;40.83;98422.80;1632075;86;20963;-69
2022/04/23 12:03:09;;;;;;;3.92;2.30;;;;;;;18.61;40.21;98416.84;1649464;84;21562;-67
2022/04/23 12:05:48;;;;;;;5.85;1.92;;;;;;;18.29;40.49;98422.35;1649879;84;21121;-68
2022/04/23 12:08:21;;;;;;;5.47;2.22;;;;;;;17.90;41.25;98400.06;1636900;85;21034;-74
2022/04/23 12:10:55;;;;;;;3.00;1.80;;;;;;;17.86;42.65;98418.69;1628349;85;21122;-68
2022/04/23 12:13:24;;;;;;;4.85;2.15;;;;;;;17.91;41.53;98416.92;1619862;86;22252;-67
2022/04/23 12:15:59;;;;;;;6.05;2.47;;;;;;;17.83;41.17;98410.55;1616253;86;20973;-68
2022/04/23 12:18:28;;;;;;;8.83;2.40;;;;;;;17.78;43.08;98410.92;1642424;85;21580;-73
2022/04/23 12:21:07;;;;;;;3.08;1.82;;;;;;;17.80;42.22;98419.06;1654996;85;21124;-68